Terminal Aerodrome Forecast
Issued by NWS

Current Version | Previous Version | Text Only | Print | Product List | Glossary On
Versions: 1 2 3 4 5 6 7 8 9 10 11 12 13 14 15 16 17
000
FTAK31 PANC 281124
TAFAHO
TAF
PAHO 281124Z 2812/2912 VRB03KT P6SM VCSH BKN120
     FM290200 13007KT P6SM -SHRA BKN035 OVC080
     FM290600 VRB03KT P6SM VCSH BKN040 BKN080=

USA.gov is the U.S. government's official web portal to all federal, state and local government web resources and services.